sensor_id;sensor_type;location;lat;lon;timestamp;P1;durP1;ratioP1;P2;durP2;ratioP2
32964;SDS011;19317;48.226;11.686;2022-12-18T00:03:23;29.73;;;13.93;;
32964;SDS011;19317;48.226;11.686;2022-12-18T00:08:14;23.13;;;13.07;;
32964;SDS011;19317;48.226;11.686;2022-12-18T00:13:05;25.27;;;13.53;;
32964;SDS011;19317;48.226;11.686;2022-12-18T00:17:56;27.77;;;13.83;;
32964;SDS011;19317;48.226;11.686;2022-12-18T00:22:47;26.97;;;12.67;;
32964;SDS011;19317;48.226;11.686;2022-12-18T00:27:38;27.67;;;15.07;;
32964;SDS011;19317;48.226;11.686;2022-12-18T00:32:29;28.03;;;13.80;;
32964;SDS011;19317;48.226;11.686;2022-12-18T00:37:20;28.37;;;14.10;;
32964;SDS011;19317;48.226;11.686;2022-12-18T00:42:10;29.17;;;13.57;;
32964;SDS011;19317;48.226;11.686;2022-12-18T00:47:01;24.27;;;13.30;;
32964;SDS011;19317;48.226;11.686;2022-12-18T00:51:52;29.27;;;14.17;;
32964;SDS011;19317;48.226;11.686;2022-12-18T00:56:43;22.77;;;11.00;;
32964;SDS011;19317;48.226;11.686;2022-12-18T01:01:34;27.33;;;12.93;;
32964;SDS011;19317;48.226;11.686;2022-12-18T01:06:25;26.67;;;13.50;;
32964;SDS011;19317;48.226;11.686;2022-12-18T01:11:17;24.87;;;13.43;;
32964;SDS011;19317;48.226;11.686;2022-12-18T01:16:10;30.83;;;13.17;;
32964;SDS011;19317;48.226;11.686;2022-12-18T01:21:05;28.53;;;14.17;;
32964;SDS011;19317;48.226;11.686;2022-12-18T01:25:56;24.03;;;12.93;;
32964;SDS011;19317;48.226;11.686;2022-12-18T01:30:47;25.03;;;13.30;;
32964;SDS011;19317;48.226;11.686;2022-12-18T01:35:41;28.17;;;14.70;;
32964;SDS011;19317;48.226;11.686;2022-12-18T01:40:32;22.13;;;12.67;;
32964;SDS011;19317;48.226;11.686;2022-12-18T01:45:24;24.07;;;12.37;;
32964;SDS011;19317;48.226;11.686;2022-12-18T01:55:26;24.33;;;11.63;;
32964;SDS011;19317;48.226;11.686;2022-12-18T02:00:19;27.57;;;14.53;;
32964;SDS011;19317;48.226;11.686;2022-12-18T02:05:11;25.90;;;14.07;;
32964;SDS011;19317;48.226;11.686;2022-12-18T02:10:06;24.43;;;12.40;;
32964;SDS011;19317;48.226;11.686;2022-12-18T02:20:11;29.90;;;12.87;;
32964;SDS011;19317;48.226;11.686;2022-12-18T02:25:11;26.87;;;13.67;;
32964;SDS011;19317;48.226;11.686;2022-12-18T02:30:04;28.17;;;13.67;;
32964;SDS011;19317;48.226;11.686;2022-12-18T02:34:56;22.10;;;12.40;;
32964;SDS011;19317;48.226;11.686;2022-12-18T02:39:47;26.83;;;12.80;;
32964;SDS011;19317;48.226;11.686;2022-12-18T02:44:46;25.33;;;13.90;;
32964;SDS011;19317;48.226;11.686;2022-12-18T03:00:36;29.27;;;14.47;;
32964;SDS011;19317;48.226;11.686;2022-12-18T03:05:10;28.30;;;14.23;;
32964;SDS011;19317;48.226;11.686;2022-12-18T03:10:02;20.77;;;11.90;;
32964;SDS011;19317;48.226;11.686;2022-12-18T03:14:56;20.60;;;11.37;;
32964;SDS011;19317;48.226;11.686;2022-12-18T03:19:48;20.17;;;11.23;;
32964;SDS011;19317;48.226;11.686;2022-12-18T03:24:40;21.50;;;12.73;;
32964;SDS011;19317;48.226;11.686;2022-12-18T03:34:23;19.87;;;10.30;;
32964;SDS011;19317;48.226;11.686;2022-12-18T03:39:15;24.57;;;11.30;;
32964;SDS011;19317;48.226;11.686;2022-12-18T03:54:19;24.53;;;11.73;;
32964;SDS011;19317;48.226;11.686;2022-12-18T03:59:11;19.23;;;10.23;;
32964;SDS011;19317;48.226;11.686;2022-12-18T04:04:03;20.63;;;10.73;;
32964;SDS011;19317;48.226;11.686;2022-12-18T04:08:55;21.80;;;10.93;;
32964;SDS011;19317;48.226;11.686;2022-12-18T04:13:47;18.47;;;10.60;;
32964;SDS011;19317;48.226;11.686;2022-12-18T04:18:38;20.93;;;10.27;;
32964;SDS011;19317;48.226;11.686;2022-12-18T04:23:28;21.87;;;10.73;;
32964;SDS011;19317;48.226;11.686;2022-12-18T04:28:20;17.43;;;9.67;;
32964;SDS011;19317;48.226;11.686;2022-12-18T04:33:11;17.77;;;10.57;;
32964;SDS011;19317;48.226;11.686;2022-12-18T04:38:02;22.10;;;11.47;;
32964;SDS011;19317;48.226;11.686;2022-12-18T04:42:53;19.63;;;10.67;;
32964;SDS011;19317;48.226;11.686;2022-12-18T04:47:44;20.40;;;10.37;;
32964;SDS011;19317;48.226;11.686;2022-12-18T04:52:35;21.20;;;10.87;;
32964;SDS011;19317;48.226;11.686;2022-12-18T04:57:26;22.37;;;11.17;;
32964;SDS011;19317;48.226;11.686;2022-12-18T05:02:16;21.23;;;10.73;;
32964;SDS011;19317;48.226;11.686;2022-12-18T05:07:07;21.70;;;10.33;;
32964;SDS011;19317;48.226;11.686;2022-12-18T05:11:58;22.60;;;11.03;;
32964;SDS011;19317;48.226;11.686;2022-12-18T05:16:49;19.40;;;10.53;;
32964;SDS011;19317;48.226;11.686;2022-12-18T05:21:40;23.73;;;11.87;;
32964;SDS011;19317;48.226;11.686;2022-12-18T05:26:31;19.07;;;10.67;;
32964;SDS011;19317;48.226;11.686;2022-12-18T05:31:22;22.70;;;11.03;;
32964;SDS011;19317;48.226;11.686;2022-12-18T05:36:13;22.20;;;11.03;;
32964;SDS011;19317;48.226;11.686;2022-12-18T05:41:04;24.73;;;12.00;;
32964;SDS011;19317;48.226;11.686;2022-12-18T05:45:55;17.90;;;10.13;;
32964;SDS011;19317;48.226;11.686;2022-12-18T05:50:47;19.23;;;10.07;;
32964;SDS011;19317;48.226;11.686;2022-12-18T05:55:38;19.10;;;11.07;;
32964;SDS011;19317;48.226;11.686;2022-12-18T06:00:30;22.60;;;11.00;;
32964;SDS011;19317;48.226;11.686;2022-12-18T06:05:21;22.80;;;12.07;;
32964;SDS011;19317;48.226;11.686;2022-12-18T06:10:12;20.13;;;10.03;;
32964;SDS011;19317;48.226;11.686;2022-12-18T06:15:03;22.43;;;11.10;;
32964;SDS011;19317;48.226;11.686;2022-12-18T06:19:54;20.97;;;11.20;;
32964;SDS011;19317;48.226;11.686;2022-12-18T06:24:45;17.80;;;9.20;;
32964;SDS011;19317;48.226;11.686;2022-12-18T06:29:36;18.83;;;10.87;;
32964;SDS011;19317;48.226;11.686;2022-12-18T06:34:27;20.83;;;10.73;;
32964;SDS011;19317;48.226;11.686;2022-12-18T06:39:18;22.33;;;11.30;;
32964;SDS011;19317;48.226;11.686;2022-12-18T06:44:08;21.67;;;11.43;;
32964;SDS011;19317;48.226;11.686;2022-12-18T06:48:59;20.73;;;10.67;;
32964;SDS011;19317;48.226;11.686;2022-12-18T06:53:50;23.10;;;10.77;;
32964;SDS011;19317;48.226;11.686;2022-12-18T06:58:41;23.10;;;11.13;;
32964;SDS011;19317;48.226;11.686;2022-12-18T07:03:32;24.30;;;10.97;;
32964;SDS011;19317;48.226;11.686;2022-12-18T07:08:23;21.93;;;11.20;;
32964;SDS011;19317;48.226;11.686;2022-12-18T07:13:14;17.87;;;10.07;;
32964;SDS011;19317;48.226;11.686;2022-12-18T07:18:05;21.47;;;10.60;;
32964;SDS011;19317;48.226;11.686;2022-12-18T07:22:56;24.53;;;9.97;;
32964;SDS011;19317;48.226;11.686;2022-12-18T07:27:47;23.60;;;13.07;;
32964;SDS011;19317;48.226;11.686;2022-12-18T07:32:38;21.93;;;11.30;;
32964;SDS011;19317;48.226;11.686;2022-12-18T07:37:29;20.83;;;11.30;;
32964;SDS011;19317;48.226;11.686;2022-12-18T07:42:20;19.87;;;10.43;;
32964;SDS011;19317;48.226;11.686;2022-12-18T07:47:10;18.93;;;10.50;;
32964;SDS011;19317;48.226;11.686;2022-12-18T07:52:01;20.00;;;10.90;;
32964;SDS011;19317;48.226;11.686;2022-12-18T07:56:52;22.13;;;10.47;;
32964;SDS011;19317;48.226;11.686;2022-12-18T08:01:43;21.97;;;10.10;;
32964;SDS011;19317;48.226;11.686;2022-12-18T08:06:34;18.67;;;9.73;;
32964;SDS011;19317;48.226;11.686;2022-12-18T08:11:26;21.53;;;10.73;;
32964;SDS011;19317;48.226;11.686;2022-12-18T08:16:17;13.87;;;8.30;;
32964;SDS011;19317;48.226;11.686;2022-12-18T08:21:12;20.37;;;10.67;;
32964;SDS011;19317;48.226;11.686;2022-12-18T08:26:03;17.93;;;9.27;;
32964;SDS011;19317;48.226;11.686;2022-12-18T08:30:54;18.97;;;9.90;;
32964;SDS011;19317;48.226;11.686;2022-12-18T08:35:45;19.27;;;9.37;;
32964;SDS011;19317;48.226;11.686;2022-12-18T08:40:36;18.30;;;9.00;;
32964;SDS011;19317;48.226;11.686;2022-12-18T08:45:27;17.57;;;9.87;;
32964;SDS011;19317;48.226;11.686;2022-12-18T08:50:18;18.80;;;9.70;;
32964;SDS011;19317;48.226;11.686;2022-12-18T08:55:09;18.57;;;9.67;;
32964;SDS011;19317;48.226;11.686;2022-12-18T09:00:00;14.33;;;9.20;;
32964;SDS011;19317;48.226;11.686;2022-12-18T09:04:51;17.30;;;8.63;;
32964;SDS011;19317;48.226;11.686;2022-12-18T09:09:41;15.33;;;8.30;;
32964;SDS011;19317;48.226;11.686;2022-12-18T09:14:32;20.43;;;9.20;;
32964;SDS011;19317;48.226;11.686;2022-12-18T09:19:23;19.53;;;9.93;;
32964;SDS011;19317;48.226;11.686;2022-12-18T09:24:15;14.37;;;8.30;;
32964;SDS011;19317;48.226;11.686;2022-12-18T09:29:06;18.80;;;9.87;;
32964;SDS011;19317;48.226;11.686;2022-12-18T09:33:57;20.40;;;9.53;;
32964;SDS011;19317;48.226;11.686;2022-12-18T09:38:48;18.80;;;10.43;;
32964;SDS011;19317;48.226;11.686;2022-12-18T09:43:46;19.40;;;10.20;;
32964;SDS011;19317;48.226;11.686;2022-12-18T09:48:38;18.63;;;10.13;;
32964;SDS011;19317;48.226;11.686;2022-12-18T09:53:31;15.90;;;8.70;;
32964;SDS011;19317;48.226;11.686;2022-12-18T09:58:29;19.90;;;9.33;;
32964;SDS011;19317;48.226;11.686;2022-12-18T10:03:22;17.13;;;10.10;;
32964;SDS011;19317;48.226;11.686;2022-12-18T10:27:58;19.67;;;9.27;;
32964;SDS011;19317;48.226;11.686;2022-12-18T10:32:50;16.93;;;9.53;;
32964;SDS011;19317;48.226;11.686;2022-12-18T10:37:58;19.43;;;9.50;;
32964;SDS011;19317;48.226;11.686;2022-12-18T10:47:55;18.20;;;9.70;;
32964;SDS011;19317;48.226;11.686;2022-12-18T10:52:52;17.50;;;10.10;;
32964;SDS011;19317;48.226;11.686;2022-12-18T10:57:44;14.13;;;8.43;;
32964;SDS011;19317;48.226;11.686;2022-12-18T11:02:36;15.13;;;9.43;;
32964;SDS011;19317;48.226;11.686;2022-12-18T11:07:40;16.00;;;9.03;;
32964;SDS011;19317;48.226;11.686;2022-12-18T11:12:37;19.07;;;9.43;;
32964;SDS011;19317;48.226;11.686;2022-12-18T11:22:19;12.77;;;8.00;;
32964;SDS011;19317;48.226;11.686;2022-12-18T11:27:15;15.83;;;8.97;;
32964;SDS011;19317;48.226;11.686;2022-12-18T11:37:11;17.87;;;9.47;;
32964;SDS011;19317;48.226;11.686;2022-12-18T11:42:16;15.77;;;9.00;;
32964;SDS011;19317;48.226;11.686;2022-12-18T11:47:12;17.70;;;9.80;;
32964;SDS011;19317;48.226;11.686;2022-12-18T11:52:09;17.77;;;8.97;;
32964;SDS011;19317;48.226;11.686;2022-12-18T12:01:55;17.60;;;9.73;;
32964;SDS011;19317;48.226;11.686;2022-12-18T12:22:18;17.93;;;8.80;;
32964;SDS011;19317;48.226;11.686;2022-12-18T12:42:12;19.33;;;9.67;;
32964;SDS011;19317;48.226;11.686;2022-12-18T12:52:31;16.87;;;8.63;;
32964;SDS011;19317;48.226;11.686;2022-12-18T12:57:30;17.07;;;10.00;;
32964;SDS011;19317;48.226;11.686;2022-12-18T13:02:28;17.73;;;9.73;;
32964;SDS011;19317;48.226;11.686;2022-12-18T13:12:16;21.80;;;9.60;;
32964;SDS011;19317;48.226;11.686;2022-12-18T13:17:17;18.73;;;10.83;;
32964;SDS011;19317;48.226;11.686;2022-12-18T13:22:20;17.13;;;9.83;;
32964;SDS011;19317;48.226;11.686;2022-12-18T13:32:22;18.07;;;10.17;;
32964;SDS011;19317;48.226;11.686;2022-12-18T13:42:34;22.27;;;10.37;;
32964;SDS011;19317;48.226;11.686;2022-12-18T13:47:34;21.60;;;11.10;;
32964;SDS011;19317;48.226;11.686;2022-12-18T13:52:26;20.47;;;11.03;;
32964;SDS011;19317;48.226;11.686;2022-12-18T14:02:16;20.60;;;10.73;;
32964;SDS011;19317;48.226;11.686;2022-12-18T14:07:09;21.27;;;10.83;;
32964;SDS011;19317;48.226;11.686;2022-12-18T14:12:01;18.27;;;11.10;;
32964;SDS011;19317;48.226;11.686;2022-12-18T14:16:53;19.77;;;11.03;;
32964;SDS011;19317;48.226;11.686;2022-12-18T14:21:45;20.17;;;11.03;;
32964;SDS011;19317;48.226;11.686;2022-12-18T14:26:36;17.60;;;11.33;;
32964;SDS011;19317;48.226;11.686;2022-12-18T14:31:28;21.73;;;10.27;;
32964;SDS011;19317;48.226;11.686;2022-12-18T14:36:20;18.73;;;10.87;;
32964;SDS011;19317;48.226;11.686;2022-12-18T14:41:12;18.90;;;10.77;;
32964;SDS011;19317;48.226;11.686;2022-12-18T14:46:25;17.97;;;9.57;;
32964;SDS011;19317;48.226;11.686;2022-12-18T15:01:02;14.33;;;8.33;;
32964;SDS011;19317;48.226;11.686;2022-12-18T15:05:53;14.43;;;8.33;;
32964;SDS011;19317;48.226;11.686;2022-12-18T15:10:47;12.93;;;8.23;;
32964;SDS011;19317;48.226;11.686;2022-12-18T15:20:38;15.23;;;8.77;;
32964;SDS011;19317;48.226;11.686;2022-12-18T15:25:34;16.57;;;9.23;;
32964;SDS011;19317;48.226;11.686;2022-12-18T15:30:26;14.07;;;8.67;;
32964;SDS011;19317;48.226;11.686;2022-12-18T15:35:19;18.27;;;9.10;;
32964;SDS011;19317;48.226;11.686;2022-12-18T15:40:13;15.13;;;8.80;;
32964;SDS011;19317;48.226;11.686;2022-12-18T15:45:05;16.80;;;8.80;;
32964;SDS011;19317;48.226;11.686;2022-12-18T15:49:56;17.43;;;8.77;;
32964;SDS011;19317;48.226;11.686;2022-12-18T15:54:47;19.97;;;9.60;;
32964;SDS011;19317;48.226;11.686;2022-12-18T15:59:38;18.93;;;10.00;;
32964;SDS011;19317;48.226;11.686;2022-12-18T16:04:29;18.33;;;10.07;;
32964;SDS011;19317;48.226;11.686;2022-12-18T16:09:20;16.23;;;9.40;;
32964;SDS011;19317;48.226;11.686;2022-12-18T16:14:13;15.67;;;8.53;;
32964;SDS011;19317;48.226;11.686;2022-12-18T16:19:06;16.07;;;9.27;;
32964;SDS011;19317;48.226;11.686;2022-12-18T16:23:56;15.57;;;10.00;;
32964;SDS011;19317;48.226;11.686;2022-12-18T16:28:47;14.70;;;8.73;;
32964;SDS011;19317;48.226;11.686;2022-12-18T16:33:38;15.87;;;9.83;;
32964;SDS011;19317;48.226;11.686;2022-12-18T16:38:29;16.53;;;9.10;;
32964;SDS011;19317;48.226;11.686;2022-12-18T16:43:20;16.67;;;9.17;;
32964;SDS011;19317;48.226;11.686;2022-12-18T16:48:11;17.43;;;8.87;;
32964;SDS011;19317;48.226;11.686;2022-12-18T16:53:02;17.03;;;9.30;;
32964;SDS011;19317;48.226;11.686;2022-12-18T16:57:53;17.90;;;8.47;;
32964;SDS011;19317;48.226;11.686;2022-12-18T17:02:43;18.73;;;9.30;;
32964;SDS011;19317;48.226;11.686;2022-12-18T17:07:34;19.23;;;10.23;;
32964;SDS011;19317;48.226;11.686;2022-12-18T17:12:25;17.77;;;10.43;;
32964;SDS011;19317;48.226;11.686;2022-12-18T17:17:16;16.80;;;9.67;;
32964;SDS011;19317;48.226;11.686;2022-12-18T17:22:07;15.43;;;8.63;;
32964;SDS011;19317;48.226;11.686;2022-12-18T17:26:58;16.70;;;9.30;;
32964;SDS011;19317;48.226;11.686;2022-12-18T17:31:49;19.73;;;10.60;;
32964;SDS011;19317;48.226;11.686;2022-12-18T17:36:40;17.43;;;9.97;;
32964;SDS011;19317;48.226;11.686;2022-12-18T17:41:31;17.63;;;9.67;;
32964;SDS011;19317;48.226;11.686;2022-12-18T17:46:22;20.97;;;10.03;;
32964;SDS011;19317;48.226;11.686;2022-12-18T17:51:13;19.33;;;10.30;;
32964;SDS011;19317;48.226;11.686;2022-12-18T17:56:05;16.80;;;9.67;;
32964;SDS011;19317;48.226;11.686;2022-12-18T18:00:56;17.43;;;9.90;;
32964;SDS011;19317;48.226;11.686;2022-12-18T18:05:47;20.13;;;9.90;;
32964;SDS011;19317;48.226;11.686;2022-12-18T18:10:38;24.43;;;11.30;;
32964;SDS011;19317;48.226;11.686;2022-12-18T18:15:29;22.40;;;12.13;;
32964;SDS011;19317;48.226;11.686;2022-12-18T18:20:20;19.40;;;11.13;;
32964;SDS011;19317;48.226;11.686;2022-12-18T18:25:10;21.40;;;11.60;;
32964;SDS011;19317;48.226;11.686;2022-12-18T18:30:01;18.03;;;10.27;;
32964;SDS011;19317;48.226;11.686;2022-12-18T18:34:52;18.60;;;11.00;;
32964;SDS011;19317;48.226;11.686;2022-12-18T18:39:43;18.37;;;10.77;;
32964;SDS011;19317;48.226;11.686;2022-12-18T18:44:34;18.53;;;10.20;;
32964;SDS011;19317;48.226;11.686;2022-12-18T18:49:26;22.47;;;11.20;;
32964;SDS011;19317;48.226;11.686;2022-12-18T18:54:17;23.50;;;12.33;;
32964;SDS011;19317;48.226;11.686;2022-12-18T18:59:07;20.90;;;12.63;;
32964;SDS011;19317;48.226;11.686;2022-12-18T19:03:59;25.77;;;12.73;;
32964;SDS011;19317;48.226;11.686;2022-12-18T19:08:50;20.57;;;11.50;;
32964;SDS011;19317;48.226;11.686;2022-12-18T19:13:42;23.87;;;12.33;;
32964;SDS011;19317;48.226;11.686;2022-12-18T19:18:34;25.50;;;11.97;;
32964;SDS011;19317;48.226;11.686;2022-12-18T19:23:25;22.70;;;11.50;;
32964;SDS011;19317;48.226;11.686;2022-12-18T19:28:16;26.90;;;11.73;;
32964;SDS011;19317;48.226;11.686;2022-12-18T19:33:07;29.00;;;13.53;;
32964;SDS011;19317;48.226;11.686;2022-12-18T19:37:58;23.47;;;12.40;;
32964;SDS011;19317;48.226;11.686;2022-12-18T19:42:49;25.67;;;12.67;;
32964;SDS011;19317;48.226;11.686;2022-12-18T19:47:40;23.47;;;11.90;;
32964;SDS011;19317;48.226;11.686;2022-12-18T19:52:31;20.27;;;11.40;;
32964;SDS011;19317;48.226;11.686;2022-12-18T19:57:21;21.50;;;12.23;;
32964;SDS011;19317;48.226;11.686;2022-12-18T20:02:12;20.87;;;10.67;;
32964;SDS011;19317;48.226;11.686;2022-12-18T20:07:03;25.47;;;11.30;;
32964;SDS011;19317;48.226;11.686;2022-12-18T20:11:54;20.27;;;12.03;;
32964;SDS011;19317;48.226;11.686;2022-12-18T20:16:45;24.97;;;12.70;;
32964;SDS011;19317;48.226;11.686;2022-12-18T20:21:36;24.57;;;12.00;;
32964;SDS011;19317;48.226;11.686;2022-12-18T20:26:27;23.83;;;11.93;;
32964;SDS011;19317;48.226;11.686;2022-12-18T20:31:18;20.07;;;10.73;;
32964;SDS011;19317;48.226;11.686;2022-12-18T20:36:14;22.53;;;12.17;;
32964;SDS011;19317;48.226;11.686;2022-12-18T20:41:06;26.87;;;11.50;;
32964;SDS011;19317;48.226;11.686;2022-12-18T20:46:04;19.27;;;10.30;;
32964;SDS011;19317;48.226;11.686;2022-12-18T20:55:49;21.27;;;11.17;;
32964;SDS011;19317;48.226;11.686;2022-12-18T21:00:39;21.23;;;11.07;;
32964;SDS011;19317;48.226;11.686;2022-12-18T21:05:30;29.50;;;12.80;;
32964;SDS011;19317;48.226;11.686;2022-12-18T21:10:21;19.33;;;11.70;;
32964;SDS011;19317;48.226;11.686;2022-12-18T21:15:12;19.67;;;10.17;;
32964;SDS011;19317;48.226;11.686;2022-12-18T21:20:03;25.70;;;11.43;;
32964;SDS011;19317;48.226;11.686;2022-12-18T21:24:54;23.60;;;11.57;;
32964;SDS011;19317;48.226;11.686;2022-12-18T21:29:45;22.23;;;11.70;;
32964;SDS011;19317;48.226;11.686;2022-12-18T21:34:36;23.70;;;12.37;;
32964;SDS011;19317;48.226;11.686;2022-12-18T21:39:27;22.40;;;12.80;;
32964;SDS011;19317;48.226;11.686;2022-12-18T21:44:18;18.67;;;10.43;;
32964;SDS011;19317;48.226;11.686;2022-12-18T21:49:09;26.00;;;12.53;;
32964;SDS011;19317;48.226;11.686;2022-12-18T21:54:01;22.37;;;12.10;;
32964;SDS011;19317;48.226;11.686;2022-12-18T21:58:52;26.13;;;12.63;;
32964;SDS011;19317;48.226;11.686;2022-12-18T22:03:45;25.00;;;11.17;;
32964;SDS011;19317;48.226;11.686;2022-12-18T22:08:36;23.60;;;10.63;;
32964;SDS011;19317;48.226;11.686;2022-12-18T22:13:28;22.83;;;11.67;;
32964;SDS011;19317;48.226;11.686;2022-12-18T22:18:18;23.07;;;12.17;;
32964;SDS011;19317;48.226;11.686;2022-12-18T22:23:09;23.73;;;13.50;;
32964;SDS011;19317;48.226;11.686;2022-12-18T22:28:00;24.47;;;12.40;;
32964;SDS011;19317;48.226;11.686;2022-12-18T22:32:51;26.87;;;13.33;;
32964;SDS011;19317;48.226;11.686;2022-12-18T22:37:42;22.83;;;12.57;;
32964;SDS011;19317;48.226;11.686;2022-12-18T22:42:33;26.43;;;13.40;;
32964;SDS011;19317;48.226;11.686;2022-12-18T22:47:24;27.93;;;13.80;;
32964;SDS011;19317;48.226;11.686;2022-12-18T22:52:15;28.50;;;14.10;;
32964;SDS011;19317;48.226;11.686;2022-12-18T22:57:05;24.67;;;12.63;;
32964;SDS011;19317;48.226;11.686;2022-12-18T23:01:56;31.73;;;14.07;;
32964;SDS011;19317;48.226;11.686;2022-12-18T23:06:47;22.37;;;12.23;;
32964;SDS011;19317;48.226;11.686;2022-12-18T23:11:38;25.77;;;13.97;;
32964;SDS011;19317;48.226;11.686;2022-12-18T23:16:29;23.30;;;12.90;;
32964;SDS011;19317;48.226;11.686;2022-12-18T23:21:20;24.77;;;12.23;;
32964;SDS011;19317;48.226;11.686;2022-12-18T23:26:12;30.87;;;12.90;;
32964;SDS011;19317;48.226;11.686;2022-12-18T23:36:27;22.33;;;12.07;;
32964;SDS011;19317;48.226;11.686;2022-12-18T23:41:19;22.43;;;12.57;;
32964;SDS011;19317;48.226;11.686;2022-12-18T23:46:11;23.53;;;11.77;;
32964;SDS011;19317;48.226;11.686;2022-12-18T23:51:08;19.27;;;11.40;;
32964;SDS011;19317;48.226;11.686;2022-12-18T23:55:59;20.90;;;11.77;;
